Time;durP1;ratioP1;P1;durP2;ratioP2;P2;SDS_P1;SDS_P2;PMS_P1;PMS_P2;Temp;Humidity;BMP_temperature;BMP_pressure;BME280_temperature;BME280_humidity;BME280_pressure;Samples;Min_cycle;Max_cycle;Signal;HPM_P1;HPM_P2
2022/05/07 00:00:38;;;;;;;13.13;10.17;;;10.10;99.90;;;;;;5050392;28;20254;-83
2022/05/07 00:03:05;;;;;;;14.03;9.70;;;10.10;99.90;;;;;;5068286;28;21053;-83
2022/05/07 00:05:31;;;;;;;11.73;10.50;;;10.10;99.90;;;;;;5050034;28;20313;-82
2022/05/07 00:07:57;;;;;;;12.43;9.47;;;10.10;99.90;;;;;;5017191;28;20420;-82
2022/05/07 00:10:23;;;;;;;12.10;9.97;;;10.10;99.90;;;;;;5033443;28;20438;-83
2022/05/07 00:12:49;;;;;;;12.27;10.20;;;10.00;99.90;;;;;;5033508;28;20518;-83
2022/05/07 00:15:15;;;;;;;11.17;9.50;;;10.00;99.90;;;;;;5033350;28;20211;-83
2022/05/07 00:20:25;;;;;;;13.03;9.90;;;10.00;99.90;;;;;;5068550;28;20432;-83
2022/05/07 00:22:50;;;;;;;10.83;9.60;;;9.80;99.90;;;;;;5033363;28;20478;-83
2022/05/07 00:25:16;;;;;;;9.37;8.00;;;9.70;99.90;;;;;;5033516;28;20205;-82
2022/05/07 00:27:42;;;;;;;9.60;8.50;;;9.80;99.90;;;;;;5016964;28;20282;-82
2022/05/07 00:30:08;;;;;;;11.97;8.83;;;9.70;99.90;;;;;;5033243;28;20277;-82
2022/05/07 00:32:34;;;;;;;15.83;8.40;;;9.70;99.90;;;;;;5050287;28;20195;-82
2022/05/07 00:35:00;;;;;;;14.60;8.97;;;9.60;99.90;;;;;;5033262;28;20457;-83
2022/05/07 00:37:27;;;;;;;14.57;10.33;;;9.70;99.90;;;;;;5050312;28;20426;-83
2022/05/07 00:39:53;;;;;;;13.70;10.00;;;9.60;99.90;;;;;;5050588;28;20426;-83
2022/05/07 00:42:20;;;;;;;16.97;9.90;;;9.60;99.90;;;;;;5033630;28;20911;-83
2022/05/07 00:44:46;;;;;;;16.10;9.47;;;9.60;99.90;;;;;;5050184;28;20671;-84
2022/05/07 00:47:14;;;;;;;14.20;9.63;;;9.60;99.90;;;;;;5068784;28;20414;-83
2022/05/07 00:49:51;;;;;;;12.03;9.30;;;9.60;99.90;;;;;;5050426;28;20447;-83
2022/05/07 00:52:20;;;;;;;12.27;9.60;;;9.60;99.90;;;;;;5033602;28;20465;-83
2022/05/07 00:54:47;;;;;;;21.70;9.70;;;9.60;99.90;;;;;;5049704;28;20437;-83
2022/05/07 00:57:14;;;;;;;13.57;10.50;;;10.10;99.90;;;;;;5033449;28;20425;-83
2022/05/07 00:59:40;;;;;;;12.47;8.83;;;9.60;99.90;;;;;;5049848;28;20954;-83
2022/05/07 01:02:06;;;;;;;11.10;8.53;;;9.60;99.90;;;;;;5070917;28;21003;-82
2022/05/07 01:04:31;;;;;;;10.67;8.97;;;9.60;99.90;;;;;;5036897;28;20456;-82
2022/05/07 01:06:58;;;;;;;14.03;8.53;;;9.60;99.90;;;;;;5072282;28;20265;-82
2022/05/07 01:09:24;;;;;;;12.37;8.57;;;9.50;99.90;;;;;;5037314;28;20276;-83
2022/05/07 01:11:51;;;;;;;10.40;8.70;;;9.50;99.90;;;;;;5072748;28;20425;-83
2022/05/07 01:14:17;;;;;;;9.97;8.70;;;9.40;99.90;;;;;;5054406;28;20463;-82
2022/05/07 01:16:43;;;;;;;14.90;8.80;;;9.30;99.90;;;;;;5054356;28;20489;-82
2022/05/07 01:19:08;;;;;;;13.47;8.70;;;9.30;99.90;;;;;;5053992;28;20632;-82
2022/05/07 01:21:34;;;;;;;15.10;8.23;;;9.30;99.90;;;;;;5037613;28;20252;-82
2022/05/07 01:24:00;;;;;;;14.67;9.23;;;9.30;99.90;;;;;;5054121;28;20223;-82
2022/05/07 01:26:26;;;;;;;14.97;8.90;;;9.20;99.90;;;;;;5053941;28;20208;-82
2022/05/07 01:29:03;;;;;;;10.40;8.37;;;9.10;99.90;;;;;;5036974;28;20956;-82
2022/05/07 01:31:29;;;;;;;10.03;8.07;;;9.00;99.90;;;;;;5072121;28;20515;-82
2022/05/07 01:33:55;;;;;;;12.03;9.07;;;8.90;99.90;;;;;;5054067;28;20465;-83
2022/05/07 01:36:21;;;;;;;14.10;9.80;;;8.90;99.90;;;;;;5053235;28;20539;-82
2022/05/07 01:38:48;;;;;;;10.13;8.40;;;8.80;99.90;;;;;;5071206;28;20872;-83
2022/05/07 01:41:14;;;;;;;10.37;8.33;;;8.80;99.90;;;;;;5053033;28;20187;-82
2022/05/07 01:43:39;;;;;;;15.80;9.00;;;8.80;99.90;;;;;;5036376;28;20938;-82
2022/05/07 01:48:09;;;;;;;17.17;9.13;;;8.80;99.90;;;;;;5036346;28;20442;-83
2022/05/07 01:48:54;;;;;;;14.57;9.17;;;8.80;99.90;;;;;;5042679;28;20188;-83
2022/05/07 01:51:20;;;;;;;13.53;10.10;;;8.80;99.90;;;;;;5052595;28;20464;-82
2022/05/07 01:53:46;;;;;;;11.20;8.90;;;8.80;99.90;;;;;;5036042;28;20441;-82
2022/05/07 01:56:12;;;;;;;16.50;9.23;;;8.80;99.90;;;;;;5052224;28;20458;-83
2022/05/07 01:58:38;;;;;;;14.03;9.77;;;8.60;99.90;;;;;;5052513;28;20418;-83
2022/05/07 02:01:04;;;;;;;12.37;9.20;;;8.50;99.90;;;;;;5036142;28;20215;-83
2022/05/07 02:03:30;;;;;;;11.10;9.57;;;8.60;99.90;;;;;;5019227;28;20477;-82
2022/05/07 02:05:56;;;;;;;15.20;9.80;;;8.60;99.90;;;;;;5035766;28;20211;-83
2022/05/07 02:08:22;;;;;;;12.70;9.17;;;8.60;99.90;;;;;;5035883;28;20425;-83
2022/05/07 02:10:47;;;;;;;16.70;9.47;;;8.60;99.90;;;;;;5035768;28;20191;-82
2022/05/07 02:13:13;;;;;;;13.60;9.57;;;8.50;99.90;;;;;;5051817;28;20463;-82
2022/05/07 02:15:39;;;;;;;14.37;10.33;;;8.50;99.90;;;;;;5035535;28;21190;-83
2022/05/07 02:18:05;;;;;;;13.10;9.70;;;8.40;99.90;;;;;;5070510;28;20618;-82
2022/05/07 02:20:30;;;;;;;12.97;10.60;;;8.40;99.90;;;;;;5019091;28;20336;-83
2022/05/07 02:22:57;;;;;;;13.40;10.40;;;8.50;99.90;;;;;;5035196;28;20469;-82
2022/05/07 02:25:23;;;;;;;14.97;10.13;;;8.50;99.90;;;;;;5035191;28;20235;-82
2022/05/07 02:27:49;;;;;;;13.50;10.20;;;8.50;99.90;;;;;;5052215;28;20424;-83
2022/05/07 02:30:19;;;;;;;13.17;8.90;;;8.60;99.90;;;;;;5051960;28;20433;-83
2022/05/07 02:32:48;;;;;;;17.43;8.80;;;8.60;99.90;;;;;;5019565;28;20966;-83
2022/05/07 02:35:15;;;;;;;14.17;9.20;;;8.60;99.90;;;;;;5051810;28;20508;-83
2022/05/07 02:37:41;;;;;;;11.13;9.40;;;8.70;99.90;;;;;;5035325;28;20863;-83
2022/05/07 02:40:07;;;;;;;13.77;9.17;;;8.50;99.90;;;;;;5035836;28;20445;-83
2022/05/07 02:42:33;;;;;;;17.73;10.00;;;8.70;99.90;;;;;;5051640;28;20834;-83
2022/05/07 02:44:59;;;;;;;17.17;10.20;;;8.50;99.90;;;;;;5034797;28;20449;-83
2022/05/07 02:47:25;;;;;;;15.13;9.10;;;8.50;99.90;;;;;;5035158;28;20183;-83
2022/05/07 02:49:51;;;;;;;15.50;10.20;;;8.50;99.90;;;;;;5034963;28;20879;-82
2022/05/07 02:52:17;;;;;;;14.50;9.60;;;8.60;99.90;;;;;;5069858;28;20418;-82
2022/05/07 02:54:43;;;;;;;11.30;8.40;;;8.60;99.90;;;;;;5051400;28;21044;-82
2022/05/07 02:57:08;;;;;;;10.27;9.10;;;8.50;99.90;;;;;;5034950;28;20771;-83
2022/05/07 02:59:34;;;;;;;10.53;7.83;;;8.40;99.90;;;;;;5069552;28;20183;-83
2022/05/07 03:02:00;;;;;;;15.77;9.23;;;8.30;99.90;;;;;;5035785;28;20653;-82
2022/05/07 03:04:26;;;;;;;13.33;9.07;;;8.20;99.90;;;;;;5036907;28;20692;-82
2022/05/07 03:06:53;;;;;;;17.83;8.50;;;8.20;99.90;;;;;;5070742;28;20486;-83
2022/05/07 03:09:18;;;;;;;10.23;8.27;;;8.20;99.90;;;;;;5051116;28;20425;-83
2022/05/07 03:11:44;;;;;;;11.33;10.13;;;8.10;99.90;;;;;;5034607;28;20510;-83
2022/05/07 03:14:10;;;;;;;10.63;9.50;;;8.10;99.90;;;;;;5034643;28;20201;-83
2022/05/07 03:16:38;;;;;;;14.20;10.10;;;8.10;99.90;;;;;;5034640;28;20612;-82
2022/05/07 03:19:04;;;;;;;15.63;10.17;;;8.10;99.90;;;;;;5051446;28;20629;-83
2022/05/07 03:21:30;;;;;;;14.90;9.90;;;8.10;99.90;;;;;;5034762;28;20977;-82
2022/05/07 03:23:56;;;;;;;20.97;10.90;;;8.00;99.90;;;;;;5033819;28;20469;-85
2022/05/07 03:26:22;;;;;;;17.63;9.80;;;8.10;99.90;;;;;;5069071;28;20435;-83
2022/05/07 03:28:48;;;;;;;14.60;10.10;;;8.10;99.90;;;;;;5069367;28;20175;-83
2022/05/07 03:31:14;;;;;;;16.90;10.87;;;8.10;99.90;;;;;;5051229;28;20999;-82
2022/05/07 03:33:40;;;;;;;16.27;10.93;;;8.00;99.90;;;;;;5051207;28;20438;-82
2022/05/07 03:36:06;;;;;;;13.20;10.90;;;8.00;99.90;;;;;;5034457;28;20507;-82
2022/05/07 03:38:32;;;;;;;12.43;10.27;;;7.90;99.90;;;;;;5051303;28;20438;-82
2022/05/07 03:40:57;;;;;;;18.80;10.60;;;8.00;99.90;;;;;;5051581;28;20931;-81
2022/05/07 03:43:23;;;;;;;12.90;9.67;;;8.00;99.90;;;;;;5051582;28;20754;-82
2022/05/07 03:45:48;;;;;;;11.80;9.73;;;8.00;99.90;;;;;;5051504;28;20273;-82
2022/05/07 03:48:14;;;;;;;17.73;10.00;;;8.00;99.90;;;;;;5034938;28;20190;-81
2022/05/07 03:50:40;;;;;;;16.93;10.83;;;7.90;99.90;;;;;;5035218;28;20692;-81
2022/05/07 03:55:50;;;;;;;19.43;10.73;;;7.80;99.90;;;;;;5069691;28;20285;-81
2022/05/07 03:58:16;;;;;;;28.43;17.20;;;7.80;99.90;;;;;;5034625;28;20456;-82
2022/05/07 04:00:42;;;;;;;19.80;12.80;;;7.70;99.90;;;;;;5034649;28;20187;-81
2022/05/07 04:03:09;;;;;;;15.73;11.53;;;7.70;99.90;;;;;;5051218;28;20464;-81
2022/05/07 04:05:34;;;;;;;15.13;10.30;;;7.70;99.90;;;;;;5034399;28;20588;-82
2022/05/07 04:08:00;;;;;;;14.77;10.90;;;7.60;99.90;;;;;;5034005;28;21048;-82
2022/05/07 04:10:26;;;;;;;12.90;10.67;;;7.60;99.90;;;;;;5034129;28;20275;-82
2022/05/07 04:12:51;;;;;;;15.73;10.93;;;7.60;99.90;;;;;;5050569;28;20294;-82
2022/05/07 04:15:18;;;;;;;18.83;11.20;;;7.50;99.90;;;;;;5050332;28;20210;-82
2022/05/07 04:17:44;;;;;;;14.97;10.40;;;7.50;99.90;;;;;;5034042;28;20185;-83
2022/05/07 04:20:11;;;;;;;15.43;12.20;;;7.60;99.90;;;;;;5033905;28;20947;-83
2022/05/07 04:22:37;;;;;;;18.23;12.50;;;7.50;99.90;;;;;;5034326;28;20218;-85
2022/05/07 04:25:07;;;;;;;16.70;11.80;;;7.60;99.90;;;;;;5069130;28;20437;-83
2022/05/07 04:27:33;;;;;;;17.20;11.77;;;7.50;99.90;;;;;;5034126;28;20417;-83
2022/05/07 04:29:59;;;;;;;19.63;11.40;;;7.50;99.90;;;;;;5050970;28;20437;-83
2022/05/07 04:32:25;;;;;;;28.00;12.63;;;7.50;99.90;;;;;;5050635;28;20209;-83
2022/05/07 04:34:51;;;;;;;17.03;13.03;;;7.40;99.90;;;;;;5034431;28;20998;-82
2022/05/07 04:37:17;;;;;;;18.93;12.80;;;7.40;99.90;;;;;;5054468;28;20480;-83
2022/05/07 04:39:47;;;;;;;20.47;12.33;;;7.40;99.90;;;;;;5037597;28;20996;-82
2022/05/07 04:42:14;;;;;;;13.83;12.30;;;7.60;99.90;;;;;;5053996;28;20654;-83
2022/05/07 04:44:39;;;;;;;16.60;12.07;;;7.60;99.90;;;;;;5037556;28;20420;-83
2022/05/07 04:47:05;;;;;;;18.10;13.30;;;7.60;99.90;;;;;;5037988;28;20844;-82
2022/05/07 04:49:32;;;;;;;24.07;13.80;;;7.60;99.90;;;;;;5037763;28;20217;-83
2022/05/07 04:51:59;;;;;;;22.40;13.30;;;7.60;99.90;;;;;;5072526;28;20181;-83
2022/05/07 04:54:25;;;;;;;22.00;12.90;;;7.70;99.90;;;;;;5037731;28;20426;-82
2022/05/07 04:56:52;;;;;;;18.33;13.57;;;7.80;99.90;;;;;;5037733;28;20908;-83
2022/05/07 04:59:20;;;;;;;28.67;13.93;;;7.90;99.90;;;;;;5020831;28;20434;-82
2022/05/07 05:01:46;;;;;;;18.00;13.20;;;8.00;99.90;;;;;;5053524;28;20489;-81
2022/05/07 05:04:12;;;;;;;18.70;12.13;;;8.20;99.90;;;;;;5053461;28;20515;-81
2022/05/07 05:06:38;;;;;;;17.40;11.60;;;8.30;99.90;;;;;;5053362;28;20551;-81
2022/05/07 05:09:07;;;;;;;19.40;11.60;;;8.40;99.90;;;;;;5071631;28;20425;-81
2022/05/07 05:11:34;;;;;;;16.53;12.53;;;8.60;99.90;;;;;;5020497;28;20490;-82
2022/05/07 05:14:00;;;;;;;15.60;12.00;;;8.70;99.90;;;;;;5037094;28;20421;-82
2022/05/07 05:16:26;;;;;;;15.60;11.80;;;8.70;99.90;;;;;;5053007;28;20446;-82
2022/05/07 05:18:52;;;;;;;15.10;12.03;;;8.70;99.90;;;;;;5036841;28;20851;-82
2022/05/07 05:21:18;;;;;;;24.30;12.13;;;8.80;99.90;;;;;;5053507;28;20427;-82
2022/05/07 05:23:46;;;;;;;15.10;12.10;;;8.90;99.90;;;;;;5053080;28;20547;-82
2022/05/07 05:26:13;;;;;;;15.10;12.43;;;9.00;99.90;;;;;;5053695;28;20191;-82
2022/05/07 05:28:40;;;;;;;16.23;11.37;;;9.10;99.90;;;;;;5053911;28;20950;-82
2022/05/07 05:31:06;;;;;;;14.70;11.73;;;9.30;99.90;;;;;;5020593;28;20422;-83
2022/05/07 05:33:32;;;;;;;14.00;11.87;;;9.40;99.90;;;;;;5072046;28;20480;-82
2022/05/07 05:35:58;;;;;;;17.87;11.80;;;9.60;99.90;;;;;;5021316;28;20910;-82
2022/05/07 05:38:24;;;;;;;14.90;11.10;;;9.70;99.90;;;;;;5037625;28;20183;-83
2022/05/07 05:40:50;;;;;;;13.90;10.53;;;9.70;99.90;;;;;;5053364;28;20454;-80
2022/05/07 05:43:20;;;;;;;15.87;12.27;;;9.90;99.90;;;;;;5053182;28;20468;-83
2022/05/07 05:45:46;;;;;;;18.63;12.27;;;10.00;99.90;;;;;;5020898;28;20828;-83
2022/05/07 05:48:13;;;;;;;19.43;11.13;;;10.20;99.90;;;;;;5070101;28;20413;-83
2022/05/07 05:50:39;;;;;;;24.70;12.37;;;10.30;99.90;;;;;;5036241;28;20544;-83
2022/05/07 05:53:05;;;;;;;18.53;11.13;;;10.50;99.90;;;;;;5052793;28;21002;-83
2022/05/07 05:55:30;;;;;;;15.73;11.70;;;10.70;99.90;;;;;;5019444;28;20450;-83
2022/05/07 05:57:56;;;;;;;15.40;11.20;;;10.80;99.90;;;;;;5071098;28;20550;-83
2022/05/07 06:00:22;;;;;;;15.80;11.30;;;11.00;99.90;;;;;;5020036;28;20685;-83
2022/05/07 06:02:49;;;;;;;15.07;10.30;;;11.00;99.90;;;;;;5036500;28;20300;-82
2022/05/07 06:05:17;;;;;;;12.67;10.40;;;11.20;99.90;;;;;;5036605;28;20530;-81
2022/05/07 06:07:43;;;;;;;12.87;11.43;;;11.30;99.90;;;;;;5053269;28;20477;-82
2022/05/07 06:10:09;;;;;;;12.80;10.83;;;11.40;99.90;;;;;;5071223;28;20418;-82
2022/05/07 06:12:35;;;;;;;17.07;11.40;;;12.00;99.90;;;;;;5036399;28;20532;-81
2022/05/07 06:15:01;;;;;;;15.37;11.90;;;11.70;99.90;;;;;;5036519;28;20900;-81
2022/05/07 06:17:26;;;;;;;14.30;11.97;;;11.80;99.90;;;;;;5036235;28;20192;-81
2022/05/07 06:19:52;;;;;;;16.80;12.43;;;12.00;99.90;;;;;;5053016;28;20424;-80
2022/05/07 06:22:18;;;;;;;17.13;12.20;;;12.20;99.90;;;;;;5053093;28;20193;-81
2022/05/07 06:27:28;;;;;;;13.83;10.30;;;12.50;99.90;;;;;;5056523;28;20493;-82
2022/05/07 06:29:56;;;;;;;13.17;9.97;;;12.70;99.90;;;;;;5053103;28;20527;-81
2022/05/07 06:32:22;;;;;;;17.63;10.60;;;12.80;99.90;;;;;;5036391;28;20720;-81
2022/05/07 06:34:48;;;;;;;14.67;11.00;;;13.00;99.90;;;;;;5052953;28;20524;-82
2022/05/07 06:37:14;;;;;;;13.50;10.13;;;13.00;99.90;;;;;;5070781;28;20412;-83
2022/05/07 06:39:41;;;;;;;15.27;9.83;;;13.20;99.90;;;;;;5019461;28;20947;-82
2022/05/07 06:42:08;;;;;;;14.33;10.20;;;13.30;99.90;;;;;;5034195;28;20188;-82
2022/05/07 06:44:33;;;;;;;17.10;10.33;;;13.50;99.90;;;;;;5050284;28;20476;-81
2022/05/07 06:46:59;;;;;;;12.83;9.90;;;13.40;99.90;;;;;;5068417;28;20834;-81
2022/05/07 06:49:25;;;;;;;15.07;9.50;;;13.40;99.90;;;;;;5033476;28;20272;-82
2022/05/07 06:51:51;;;;;;;14.30;9.60;;;13.50;99.90;;;;;;5017026;28;20236;-81
2022/05/07 06:54:17;;;;;;;16.83;9.43;;;13.70;99.90;;;;;;5033535;28;20191;-82
2022/05/07 06:56:43;;;;;;;14.80;9.60;;;14.00;99.90;;;;;;5067634;28;20566;-81
2022/05/07 06:59:10;;;;;;;12.33;9.23;;;14.00;99.90;;;;;;5033237;28;20432;-81
2022/05/07 07:01:37;;;;;;;11.87;10.63;;;13.80;99.90;;;;;;5049572;28;20429;-81
2022/05/07 07:04:03;;;;;;;11.30;9.03;;;13.70;99.90;;;;;;5049879;28;20480;-82
2022/05/07 07:06:28;;;;;;;13.30;9.13;;;13.60;99.90;;;;;;5033054;28;20436;-82
2022/05/07 07:08:55;;;;;;;13.90;10.07;;;13.50;99.90;;;;;;5050018;28;20463;-81
2022/05/07 07:11:22;;;;;;;10.90;9.53;;;13.40;99.90;;;;;;5067850;28;20197;-81
2022/05/07 07:13:48;;;;;;;12.43;9.30;;;13.40;99.90;;;;;;5067777;28;20455;-81
2022/05/07 07:16:14;;;;;;;13.70;10.03;;;13.40;99.90;;;;;;5049465;28;20986;-81
2022/05/07 07:18:39;;;;;;;11.87;9.77;;;13.50;99.90;;;;;;5067346;28;20453;-81
2022/05/07 07:21:05;;;;;;;13.07;8.87;;;13.60;99.90;;;;;;5032838;28;20229;-82
2022/05/07 07:23:31;;;;;;;14.57;9.97;;;13.80;99.90;;;;;;5049520;28;20210;-81
2022/05/07 07:25:57;;;;;;;12.17;9.20;;;13.90;99.90;;;;;;5032602;28;20390;-81
2022/05/07 07:28:23;;;;;;;12.20;10.90;;;14.10;99.90;;;;;;5032831;28;21263;-81
2022/05/07 07:30:49;;;;;;;12.43;9.27;;;14.20;99.90;;;;;;5049105;28;20421;-81
2022/05/07 07:33:15;;;;;;;17.00;9.83;;;14.40;99.90;;;;;;5067329;28;20256;-81
2022/05/07 07:35:44;;;;;;;14.63;9.93;;;14.60;99.90;;;;;;5067279;28;20712;-83
2022/05/07 07:38:11;;;;;;;11.70;9.80;;;14.70;99.90;;;;;;5032586;28;20191;-81
2022/05/07 07:40:38;;;;;;;12.33;10.40;;;14.80;99.90;;;;;;5032680;28;20471;-81
2022/05/07 07:43:04;;;;;;;18.67;10.70;;;14.90;99.90;;;;;;5067396;28;20514;-82
2022/05/07 07:48:15;;;;;;;11.80;9.33;;;15.20;99.90;;;;;;5051910;28;20190;-82
2022/05/07 07:50:41;;;;;;;12.50;9.73;;;15.10;99.90;;;;;;5048847;28;20480;-80
2022/05/07 07:53:10;;;;;;;10.10;8.93;;;15.30;99.90;;;;;;5048736;28;20433;-81
2022/05/07 07:55:37;;;;;;;12.47;9.83;;;15.50;99.90;;;;;;5048801;28;20449;-82
2022/05/07 07:58:05;;;;;;;15.80;10.30;;;15.70;99.90;;;;;;5048860;28;20419;-82
2022/05/07 08:00:33;;;;;;;13.43;10.10;;;15.80;99.90;;;;;;5049325;28;20426;-82
2022/05/07 08:03:03;;;;;;;12.37;9.60;;;15.80;99.90;;;;;;5032691;28;20469;-81
2022/05/07 08:05:36;;;;;;;11.53;9.47;;;16.10;99.90;;;;;;5066783;28;20968;-81
2022/05/07 08:13:42;;;;;;;15.63;10.00;;;16.60;99.90;;;;;;5067224;28;20460;-82
2022/05/07 08:16:09;;;;;;;12.47;10.00;;;16.80;99.90;;;;;;5049003;28;20444;-82
2022/05/07 08:18:36;;;;;;;13.10;10.90;;;16.80;99.90;;;;;;5032276;28;20426;-82
2022/05/07 08:21:03;;;;;;;11.40;9.57;;;16.80;99.90;;;;;;5067164;28;20947;-81
2022/05/07 08:23:29;;;;;;;10.33;9.33;;;16.90;99.90;;;;;;5048964;28;20466;-82
2022/05/07 08:25:54;;;;;;;12.70;10.90;;;16.90;99.90;;;;;;5032540;28;20444;-80
2022/05/07 08:28:21;;;;;;;16.00;11.17;;;16.90;99.90;;;;;;5032952;28;20640;-81
2022/05/07 08:30:49;;;;;;;21.80;12.00;;;17.00;99.90;;;;;;5049728;28;20720;-81
2022/05/07 08:33:17;;;;;;;15.23;10.47;;;17.10;99.90;;;;;;5050047;28;20422;-82
2022/05/07 08:35:43;;;;;;;18.10;10.73;;;17.20;99.90;;;;;;5049597;28;20898;-82
2022/05/07 08:38:09;;;;;;;14.03;9.97;;;17.30;99.90;;;;;;5049604;28;20906;-81
2022/05/07 08:40:35;;;;;;;17.60;11.50;;;17.30;99.90;;;;;;5067786;28;20420;-82
2022/05/07 08:43:02;;;;;;;15.23;11.30;;;17.40;99.90;;;;;;5048969;28;20223;-81
2022/05/07 08:45:28;;;;;;;27.27;11.93;;;17.60;99.90;;;;;;5032897;28;20209;-81
2022/05/07 08:47:53;;;;;;;14.83;10.53;;;17.80;99.90;;;;;;5067351;28;20999;-82
2022/05/07 08:50:20;;;;;;;12.77;10.90;;;18.00;99.90;;;;;;5049145;28;20210;-82
2022/05/07 08:52:46;;;;;;;13.43;11.43;;;18.30;99.90;;;;;;5032597;28;20203;-82
2022/05/07 08:55:17;;;;;;;12.57;10.93;;;18.30;99.90;;;;;;5015811;28;20487;-82
2022/05/07 08:57:45;;;;;;;12.00;10.67;;;18.50;99.90;;;;;;5049066;28;20424;-82
2022/05/07 09:00:14;;;;;;;12.47;9.83;;;18.50;99.90;;;;;;5032434;28;20475;-82
2022/05/07 09:02:50;;;;;;;10.67;9.10;;;18.60;99.90;;;;;;5048384;28;20439;-81
2022/05/07 09:05:18;;;;;;;13.90;9.97;;;18.80;99.90;;;;;;5048464;28;20440;-81
2022/05/07 09:07:54;;;;;;;13.57;11.00;;;19.10;99.90;;;;;;5031916;28;20424;-81
2022/05/07 09:10:20;;;;;;;14.33;10.80;;;19.20;99.90;;;;;;5031654;28;20427;-81
2022/05/07 09:12:46;;;;;;;15.93;10.30;;;19.10;99.90;;;;;;5031711;28;20438;-80
2022/05/07 09:15:12;;;;;;;20.30;10.87;;;19.10;99.90;;;;;;5031274;28;20970;-81
2022/05/07 09:17:38;;;;;;;12.40;9.70;;;19.30;99.90;;;;;;5031413;28;20959;-80
2022/05/07 09:20:14;;;;;;;12.60;11.10;;;19.50;99.90;;;;;;5048243;28;20434;-82
2022/05/07 09:22:49;;;;;;;18.47;10.90;;;19.80;99.90;;;;;;5050014;28;20436;-82
2022/05/07 09:25:43;;;;;;;12.23;10.70;;;20.10;99.90;;;;;;5035723;28;20448;-81
2022/05/07 09:28:08;;;;;;;13.83;10.80;;;20.60;99.40;;;;;;5051873;28;20417;-80
2022/05/07 09:30:34;;;;;;;15.57;10.60;;;21.10;98.00;;;;;;5035590;28;20421;-83
2022/05/07 09:33:00;;;;;;;18.60;10.40;;;21.30;98.10;;;;;;5036038;28;20203;-82
2022/05/07 09:38:13;;;;;;;13.33;10.50;;;21.00;97.60;;;;;;5071608;28;20590;-82
2022/05/07 09:40:44;;;;;;;12.40;11.10;;;20.90;97.60;;;;;;5054186;28;20426;-82
2022/05/07 09:43:11;;;;;;;13.37;10.97;;;20.80;97.60;;;;;;5052162;28;20466;-81
2022/05/07 09:45:40;;;;;;;14.13;11.90;;;20.80;97.20;;;;;;5052472;28;20456;-83
2022/05/07 09:48:12;;;;;;;17.70;12.93;;;20.80;97.20;;;;;;5035612;28;20475;-82
2022/05/07 09:58:44;;;;;;;12.20;10.87;;;20.80;97.60;;;;;;5070080;28;20423;-82
2022/05/07 10:01:31;;;;;;;12.70;10.23;;;21.10;97.80;;;;;;5069292;28;20429;-82
2022/05/07 10:04:15;;;;;;;11.07;9.00;;;21.40;97.20;;;;;;5050982;28;20498;-81
2022/05/07 10:06:58;;;;;;;12.00;9.50;;;21.40;94.50;;;;;;5051409;28;20442;-82
2022/05/07 10:09:36;;;;;;;14.13;9.07;;;21.50;94.40;;;;;;5050874;28;20940;-82
2022/05/07 10:12:04;;;;;;;9.90;6.83;;;21.90;94.10;;;;;;5051227;28;20427;-84
2022/05/07 10:14:31;;;;;;;10.63;6.53;;;22.30;90.40;;;;;;5069034;28;20431;-82
2022/05/07 10:17:10;;;;;;;12.53;10.57;;;22.50;89.60;;;;;;5069284;28;20425;-82
2022/05/07 10:19:36;;;;;;;15.33;10.87;;;22.90;91.00;;;;;;5051004;28;20931;-83
2022/05/07 10:22:02;;;;;;;10.00;7.00;;;23.00;91.60;;;;;;5050293;28;20485;-81
2022/05/07 10:24:28;;;;;;;9.87;6.57;;;22.90;90.20;;;;;;5034701;28;20614;-79
2022/05/07 10:26:54;;;;;;;5.73;5.00;;;22.40;84.60;;;;;;5034659;28;21321;-83
2022/05/07 10:29:24;;;;;;;6.20;4.73;;;22.30;81.20;;;;;;5051582;28;20240;-82
2022/05/07 10:31:50;;;;;;;7.80;4.40;;;22.10;83.70;;;;;;5051151;28;20204;-82
2022/05/07 10:34:26;;;;;;;6.47;4.70;;;21.80;81.40;;;;;;5034214;28;20429;-81
2022/05/07 10:37:04;;;;;;;7.10;4.80;;;21.60;85.30;;;;;;5051186;28;20190;-80
2022/05/07 10:39:31;;;;;;;5.63;5.03;;;21.50;86.10;;;;;;5051640;28;20425;-81
2022/05/07 10:42:03;;;;;;;4.90;4.30;;;21.30;78.80;;;;;;5069945;28;20459;-79
2022/05/07 10:44:34;;;;;;;6.70;5.73;;;21.40;84.80;;;;;;5051465;28;20570;-80
2022/05/07 10:47:11;;;;;;;8.60;6.20;;;21.40;82.90;;;;;;5018376;28;20802;-81
2022/05/07 10:49:55;;;;;;;9.17;6.07;;;21.80;85.80;;;;;;5034291;28;20453;-81
2022/05/07 10:52:32;;;;;;;6.57;5.70;;;22.20;85.90;;;;;;5035042;28;20801;-82
2022/05/07 10:55:09;;;;;;;8.10;5.67;;;22.40;83.00;;;;;;5034583;28;20453;-82
2022/05/07 10:57:45;;;;;;;8.90;6.00;;;22.40;80.40;;;;;;5051237;28;20441;-82
2022/05/07 11:00:16;;;;;;;5.73;5.13;;;22.70;85.20;;;;;;5036014;28;20429;-81
2022/05/07 11:02:43;;;;;;;10.73;4.23;;;22.90;82.30;;;;;;5050913;28;20896;-81
2022/05/07 11:05:11;;;;;;;10.67;5.50;;;23.00;82.70;;;;;;5034385;28;20484;-78
2022/05/07 11:07:38;;;;;;;6.90;4.70;;;22.80;78.90;;;;;;5034763;28;20434;-79
2022/05/07 11:10:04;;;;;;;8.83;4.87;;;22.80;81.40;;;;;;5069062;28;20422;-81
2022/05/07 11:12:30;;;;;;;17.87;5.30;;;22.50;79.10;;;;;;5068692;28;20443;-79
2022/05/07 11:14:56;;;;;;;10.33;5.30;;;22.50;80.80;;;;;;5050973;28;20569;-80
2022/05/07 11:17:48;;;;;;;7.73;4.33;;;22.40;81.20;;;;;;5050674;28;21043;-81
2022/05/07 11:20:14;;;;;;;6.63;4.87;;;22.30;78.30;;;;;;5029954;28;20191;-81
2022/05/07 11:22:40;;;;;;;7.50;4.83;;;22.20;77.30;;;;;;5050346;28;20474;-81
2022/05/07 11:25:06;;;;;;;5.77;4.10;;;22.30;77.30;;;;;;5049841;28;20294;-80
2022/05/07 11:27:32;;;;;;;6.77;4.37;;;22.40;78.80;;;;;;5033176;28;20206;-81
2022/05/07 11:30:00;;;;;;;5.37;4.87;;;22.40;78.50;;;;;;5033858;28;20871;-82
2022/05/07 11:32:40;;;;;;;5.47;4.37;;;22.60;78.10;;;;;;5033388;28;20421;-82
2022/05/07 11:35:06;;;;;;;5.63;5.03;;;22.60;78.40;;;;;;5049834;28;20956;-81
2022/05/07 11:37:43;;;;;;;6.43;4.17;;;22.30;75.60;;;;;;5032768;28;20441;-80
2022/05/07 11:40:11;;;;;;;8.03;6.40;;;22.10;81.00;;;;;;5033670;28;20425;-81
2022/05/07 11:42:43;;;;;;;5.30;4.80;;;21.80;83.60;;;;;;5032769;28;20429;-82
2022/05/07 11:45:33;;;;;;;5.80;4.50;;;21.50;86.60;;;;;;5048955;28;20460;-81
2022/05/07 11:48:13;;;;;;;6.10;4.63;;;21.50;87.10;;;;;;5052665;28;20444;-82
2022/05/07 11:50:59;;;;;;;8.23;5.17;;;21.90;87.50;;;;;;5049274;28;20478;-80
2022/05/07 11:53:35;;;;;;;9.90;5.50;;;22.40;83.50;;;;;;5067528;28;20992;-82
2022/05/07 11:56:09;;;;;;;7.47;4.70;;;22.80;80.10;;;;;;5049023;28;20452;-82
2022/05/07 11:58:49;;;;;;;6.47;5.40;;;23.20;82.70;;;;;;5016780;28;20490;-81
2022/05/07 12:01:23;;;;;;;8.10;5.20;;;23.70;82.30;;;;;;5049410;28;20440;-81
2022/05/07 12:03:50;;;;;;;10.53;5.00;;;24.10;82.00;;;;;;5032787;28;20485;-82
2022/05/07 12:06:30;;;;;;;7.57;4.77;;;24.00;76.90;;;;;;5067405;28;20465;-83
2022/05/07 12:09:09;;;;;;;5.80;5.20;;;24.10;79.40;;;;;;5049365;28;20429;-82
2022/05/07 12:11:36;;;;;;;11.87;5.37;;;24.20;76.00;;;;;;5067517;28;20429;-82
2022/05/07 12:14:02;;;;;;;26.70;17.10;;;24.50;75.90;;;;;;5032902;28;20732;-81
2022/05/07 12:19:14;;;;;;;6.13;4.87;;;24.70;74.70;;;;;;5052765;28;20280;-89
2022/05/07 12:29:52;;;;;;;5.30;3.97;;;23.20;77.30;;;;;;5052858;28;20510;-89
2022/05/07 12:32:24;;;;;;;11.30;8.07;;;23.00;74.10;;;;;;5067725;28;20507;-92
2022/05/07 12:34:50;;;;;;;5.90;3.73;;;22.80;72.90;;;;;;5067972;28;20548;-87
2022/05/07 12:37:16;;;;;;;4.30;3.47;;;22.60;72.00;;;;;;5033351;28;20513;-88
2022/05/07 12:39:43;;;;;;;4.33;3.43;;;22.50;76.20;;;;;;5033017;28;20437;-88
2022/05/07 12:42:11;;;;;;;5.20;3.73;;;22.50;73.00;;;;;;5032762;28;20513;-89
2022/05/07 12:44:38;;;;;;;7.33;3.70;;;22.70;72.90;;;;;;5049476;28;20466;-87
2022/05/07 12:47:07;;;;;;;4.53;3.50;;;23.00;75.20;;;;;;5068119;28;20436;-91
2022/05/07 12:49:33;;;;;;;5.93;3.23;;;23.50;69.20;;;;;;5034402;28;20467;-90
2022/05/07 12:51:59;;;;;;;4.97;3.57;;;23.50;72.70;;;;;;5051648;28;20433;-90
2022/05/07 12:54:25;;;;;;;11.00;5.90;;;23.70;72.90;;;;;;5035535;28;20740;-87
2022/05/07 12:56:50;;;;;;;4.37;2.50;;;24.20;71.90;;;;;;5052000;28;21015;-86
2022/05/07 12:59:20;;;;;;;4.47;3.27;;;24.50;70.40;;;;;;5036339;28;20655;-86
2022/05/07 13:01:46;;;;;;;4.37;2.70;;;24.50;70.00;;;;;;5036499;28;20455;-86
2022/05/07 13:04:12;;;;;;;6.03;2.97;;;24.70;68.40;;;;;;5035887;28;20475;-87
2022/05/07 13:06:38;;;;;;;9.50;3.67;;;24.70;66.60;;;;;;5035821;28;20452;-83
2022/05/07 13:09:04;;;;;;;5.30;2.83;;;24.60;64.50;;;;;;5070618;28;20264;-87
2022/05/07 13:11:30;;;;;;;3.67;2.80;;;24.40;65.00;;;;;;5035528;28;20423;-84
2022/05/07 13:13:55;;;;;;;3.40;2.23;;;24.40;68.50;;;;;;5070628;28;20189;-83
2022/05/07 13:16:22;;;;;;;4.43;2.60;;;24.50;66.40;;;;;;5019124;28;20454;-89
2022/05/07 13:18:48;;;;;;;4.17;2.80;;;24.70;66.60;;;;;;5053095;28;20213;-90